sensor_id;sensor_type;location;lat;lon;timestamp;P1;durP1;ratioP1;P2;durP2;ratioP2
79751;SDS011;69234;47.446;21.636;2023-08-06T00:00:25;11.23;;;11.23;;
79751;SDS011;69234;47.446;21.636;2023-08-06T00:00:56;11.37;;;11.37;;
79751;SDS011;69234;47.446;21.636;2023-08-06T00:01:27;11.90;;;11.90;;
79751;SDS011;69234;47.446;21.636;2023-08-06T00:01:58;11.30;;;11.30;;
79751;SDS011;69234;47.446;21.636;2023-08-06T00:02:29;11.43;;;11.43;;
79751;SDS011;69234;47.446;21.636;2023-08-06T00:03:00;11.20;;;11.20;;
79751;SDS011;69234;47.446;21.636;2023-08-06T00:03:31;11.87;;;11.87;;
79751;SDS011;69234;47.446;21.636;2023-08-06T00:04:02;12.10;;;12.10;;
79751;SDS011;69234;47.446;21.636;2023-08-06T00:04:33;11.00;;;11.00;;
79751;SDS011;69234;47.446;21.636;2023-08-06T00:05:04;11.40;;;11.40;;
79751;SDS011;69234;47.446;21.636;2023-08-06T00:05:35;11.87;;;11.87;;
79751;SDS011;69234;47.446;21.636;2023-08-06T00:06:06;11.93;;;11.93;;
79751;SDS011;69234;47.446;21.636;2023-08-06T00:06:37;11.17;;;11.17;;
79751;SDS011;69234;47.446;21.636;2023-08-06T00:07:08;11.23;;;11.23;;
79751;SDS011;69234;47.446;21.636;2023-08-06T00:07:39;11.43;;;11.43;;
79751;SDS011;69234;47.446;21.636;2023-08-06T00:08:10;12.03;;;12.03;;
79751;SDS011;69234;47.446;21.636;2023-08-06T00:08:41;12.30;;;12.30;;
79751;SDS011;69234;47.446;21.636;2023-08-06T00:09:12;11.57;;;11.57;;
79751;SDS011;69234;47.446;21.636;2023-08-06T00:09:43;10.90;;;10.90;;
79751;SDS011;69234;47.446;21.636;2023-08-06T00:10:14;11.20;;;11.20;;
79751;SDS011;69234;47.446;21.636;2023-08-06T00:10:47;11.23;;;11.23;;
79751;SDS011;69234;47.446;21.636;2023-08-06T00:11:19;11.77;;;11.77;;
79751;SDS011;69234;47.446;21.636;2023-08-06T00:11:50;10.67;;;10.67;;
79751;SDS011;69234;47.446;21.636;2023-08-06T00:12:20;10.60;;;10.60;;
79751;SDS011;69234;47.446;21.636;2023-08-06T00:12:51;10.93;;;10.93;;
79751;SDS011;69234;47.446;21.636;2023-08-06T00:13:22;11.53;;;11.53;;
79751;SDS011;69234;47.446;21.636;2023-08-06T00:13:53;11.43;;;11.43;;
79751;SDS011;69234;47.446;21.636;2023-08-06T00:14:24;11.83;;;11.83;;
79751;SDS011;69234;47.446;21.636;2023-08-06T00:14:55;10.83;;;10.83;;
79751;SDS011;69234;47.446;21.636;2023-08-06T00:15:26;11.57;;;11.57;;
79751;SDS011;69234;47.446;21.636;2023-08-06T00:16:07;11.20;;;11.20;;
79751;SDS011;69234;47.446;21.636;2023-08-06T00:16:43;12.10;;;12.10;;
79751;SDS011;69234;47.446;21.636;2023-08-06T00:17:15;11.73;;;11.73;;
79751;SDS011;69234;47.446;21.636;2023-08-06T00:17:46;11.93;;;11.93;;
79751;SDS011;69234;47.446;21.636;2023-08-06T00:18:17;11.77;;;11.77;;
79751;SDS011;69234;47.446;21.636;2023-08-06T00:18:48;11.93;;;11.93;;
79751;SDS011;69234;47.446;21.636;2023-08-06T00:19:19;11.87;;;11.87;;
79751;SDS011;69234;47.446;21.636;2023-08-06T00:19:50;11.47;;;11.47;;
79751;SDS011;69234;47.446;21.636;2023-08-06T00:20:21;12.17;;;12.17;;
79751;SDS011;69234;47.446;21.636;2023-08-06T00:20:52;11.50;;;11.50;;
79751;SDS011;69234;47.446;21.636;2023-08-06T00:21:23;11.77;;;11.77;;
79751;SDS011;69234;47.446;21.636;2023-08-06T00:21:54;10.90;;;10.90;;
79751;SDS011;69234;47.446;21.636;2023-08-06T00:22:25;11.47;;;11.47;;
79751;SDS011;69234;47.446;21.636;2023-08-06T00:22:56;11.50;;;11.50;;
79751;SDS011;69234;47.446;21.636;2023-08-06T00:23:26;11.50;;;11.50;;
79751;SDS011;69234;47.446;21.636;2023-08-06T00:23:57;11.47;;;11.47;;
79751;SDS011;69234;47.446;21.636;2023-08-06T00:24:28;11.33;;;11.33;;
79751;SDS011;69234;47.446;21.636;2023-08-06T00:24:59;11.17;;;11.17;;
79751;SDS011;69234;47.446;21.636;2023-08-06T00:25:30;11.53;;;11.53;;
79751;SDS011;69234;47.446;21.636;2023-08-06T00:26:01;11.57;;;11.57;;
79751;SDS011;69234;47.446;21.636;2023-08-06T00:26:32;11.27;;;11.27;;
79751;SDS011;69234;47.446;21.636;2023-08-06T00:27:03;11.13;;;11.13;;
79751;SDS011;69234;47.446;21.636;2023-08-06T00:27:34;11.07;;;11.07;;
79751;SDS011;69234;47.446;21.636;2023-08-06T00:28:05;11.03;;;11.03;;
79751;SDS011;69234;47.446;21.636;2023-08-06T00:28:36;11.33;;;11.33;;
79751;SDS011;69234;47.446;21.636;2023-08-06T00:29:07;11.40;;;11.40;;
79751;SDS011;69234;47.446;21.636;2023-08-06T00:29:38;10.90;;;10.90;;
79751;SDS011;69234;47.446;21.636;2023-08-06T00:30:09;11.70;;;11.70;;
79751;SDS011;69234;47.446;21.636;2023-08-06T00:30:41;11.40;;;11.40;;
79751;SDS011;69234;47.446;21.636;2023-08-06T00:31:12;11.37;;;11.37;;
79751;SDS011;69234;47.446;21.636;2023-08-06T00:31:43;10.93;;;10.93;;
79751;SDS011;69234;47.446;21.636;2023-08-06T00:32:14;10.47;;;10.47;;
79751;SDS011;69234;47.446;21.636;2023-08-06T00:32:44;10.40;;;10.40;;
79751;SDS011;69234;47.446;21.636;2023-08-06T00:33:15;11.83;;;11.83;;
79751;SDS011;69234;47.446;21.636;2023-08-06T00:33:46;10.67;;;10.67;;
79751;SDS011;69234;47.446;21.636;2023-08-06T00:34:18;11.53;;;11.53;;
79751;SDS011;69234;47.446;21.636;2023-08-06T00:34:49;11.90;;;11.90;;
79751;SDS011;69234;47.446;21.636;2023-08-06T00:35:19;10.83;;;10.83;;
79751;SDS011;69234;47.446;21.636;2023-08-06T00:35:50;11.17;;;11.17;;
79751;SDS011;69234;47.446;21.636;2023-08-06T00:36:22;11.17;;;11.17;;
79751;SDS011;69234;47.446;21.636;2023-08-06T00:36:53;11.03;;;11.03;;
79751;SDS011;69234;47.446;21.636;2023-08-06T00:37:24;10.90;;;10.90;;
79751;SDS011;69234;47.446;21.636;2023-08-06T00:37:55;11.20;;;11.20;;
79751;SDS011;69234;47.446;21.636;2023-08-06T00:38:26;10.77;;;10.77;;
79751;SDS011;69234;47.446;21.636;2023-08-06T00:38:57;10.50;;;10.50;;
79751;SDS011;69234;47.446;21.636;2023-08-06T00:39:28;10.67;;;10.67;;
79751;SDS011;69234;47.446;21.636;2023-08-06T00:39:59;10.77;;;10.77;;
79751;SDS011;69234;47.446;21.636;2023-08-06T00:40:30;10.50;;;10.50;;
79751;SDS011;69234;47.446;21.636;2023-08-06T00:41:01;10.20;;;10.20;;
79751;SDS011;69234;47.446;21.636;2023-08-06T00:41:32;10.67;;;10.67;;
79751;SDS011;69234;47.446;21.636;2023-08-06T00:42:03;11.43;;;11.43;;
79751;SDS011;69234;47.446;21.636;2023-08-06T00:42:34;10.80;;;10.80;;
79751;SDS011;69234;47.446;21.636;2023-08-06T00:43:05;11.17;;;11.17;;
79751;SDS011;69234;47.446;21.636;2023-08-06T00:43:36;11.03;;;11.03;;
79751;SDS011;69234;47.446;21.636;2023-08-06T00:44:07;11.00;;;11.00;;
79751;SDS011;69234;47.446;21.636;2023-08-06T00:44:38;11.30;;;11.30;;
79751;SDS011;69234;47.446;21.636;2023-08-06T00:45:11;10.70;;;10.70;;
79751;SDS011;69234;47.446;21.636;2023-08-06T00:45:42;10.97;;;10.97;;
79751;SDS011;69234;47.446;21.636;2023-08-06T00:46:14;10.43;;;10.43;;
79751;SDS011;69234;47.446;21.636;2023-08-06T00:46:45;10.90;;;10.90;;
79751;SDS011;69234;47.446;21.636;2023-08-06T00:47:16;11.20;;;11.20;;
79751;SDS011;69234;47.446;21.636;2023-08-06T00:47:49;11.40;;;11.40;;
79751;SDS011;69234;47.446;21.636;2023-08-06T00:48:20;10.13;;;10.13;;
79751;SDS011;69234;47.446;21.636;2023-08-06T00:48:51;10.13;;;10.13;;
79751;SDS011;69234;47.446;21.636;2023-08-06T00:49:22;10.37;;;10.37;;
79751;SDS011;69234;47.446;21.636;2023-08-06T00:49:54;10.77;;;10.77;;
79751;SDS011;69234;47.446;21.636;2023-08-06T00:50:25;11.10;;;11.10;;
79751;SDS011;69234;47.446;21.636;2023-08-06T00:50:56;10.70;;;10.70;;
79751;SDS011;69234;47.446;21.636;2023-08-06T00:51:28;10.47;;;10.47;;
79751;SDS011;69234;47.446;21.636;2023-08-06T00:51:59;11.20;;;11.20;;
79751;SDS011;69234;47.446;21.636;2023-08-06T00:52:30;10.70;;;10.70;;
79751;SDS011;69234;47.446;21.636;2023-08-06T00:53:01;10.63;;;10.63;;
79751;SDS011;69234;47.446;21.636;2023-08-06T00:53:32;10.97;;;10.97;;
79751;SDS011;69234;47.446;21.636;2023-08-06T00:54:03;10.87;;;10.87;;
79751;SDS011;69234;47.446;21.636;2023-08-06T00:54:34;10.73;;;10.73;;
79751;SDS011;69234;47.446;21.636;2023-08-06T00:55:06;11.40;;;11.40;;
79751;SDS011;69234;47.446;21.636;2023-08-06T00:55:37;11.53;;;11.53;;
79751;SDS011;69234;47.446;21.636;2023-08-06T00:56:09;10.77;;;10.77;;
79751;SDS011;69234;47.446;21.636;2023-08-06T00:56:40;11.00;;;11.00;;
79751;SDS011;69234;47.446;21.636;2023-08-06T00:57:13;10.27;;;10.27;;
79751;SDS011;69234;47.446;21.636;2023-08-06T00:57:44;11.40;;;11.40;;
79751;SDS011;69234;47.446;21.636;2023-08-06T00:58:15;11.50;;;11.50;;
79751;SDS011;69234;47.446;21.636;2023-08-06T00:58:47;10.87;;;10.87;;
79751;SDS011;69234;47.446;21.636;2023-08-06T00:59:18;11.00;;;11.00;;
79751;SDS011;69234;47.446;21.636;2023-08-06T00:59:50;10.37;;;10.37;;
79751;SDS011;69234;47.446;21.636;2023-08-06T01:00:21;11.13;;;11.13;;
79751;SDS011;69234;47.446;21.636;2023-08-06T01:00:54;11.20;;;11.20;;
79751;SDS011;69234;47.446;21.636;2023-08-06T01:01:25;10.90;;;10.90;;
79751;SDS011;69234;47.446;21.636;2023-08-06T01:01:55;10.83;;;10.83;;
79751;SDS011;69234;47.446;21.636;2023-08-06T01:02:26;11.00;;;11.00;;
79751;SDS011;69234;47.446;21.636;2023-08-06T01:02:58;10.87;;;10.87;;
79751;SDS011;69234;47.446;21.636;2023-08-06T01:03:29;11.10;;;11.10;;
79751;SDS011;69234;47.446;21.636;2023-08-06T01:04:00;11.33;;;11.33;;
79751;SDS011;69234;47.446;21.636;2023-08-06T01:04:31;10.93;;;10.93;;
79751;SDS011;69234;47.446;21.636;2023-08-06T01:05:04;10.97;;;10.97;;
79751;SDS011;69234;47.446;21.636;2023-08-06T01:05:35;10.77;;;10.77;;
79751;SDS011;69234;47.446;21.636;2023-08-06T01:06:06;10.47;;;10.47;;
79751;SDS011;69234;47.446;21.636;2023-08-06T01:08:48;9.97;;;9.97;;
79751;SDS011;69234;47.446;21.636;2023-08-06T01:09:50;10.07;;;10.07;;
79751;SDS011;69234;47.446;21.636;2023-08-06T01:10:51;10.67;;;10.67;;
79751;SDS011;69234;47.446;21.636;2023-08-06T01:12:34;10.37;;;10.37;;
79751;SDS011;69234;47.446;21.636;2023-08-06T01:15:46;9.03;;;9.03;;
79751;SDS011;69234;47.446;21.636;2023-08-06T01:16:20;9.70;;;9.70;;
79751;SDS011;69234;47.446;21.636;2023-08-06T01:16:51;10.27;;;10.27;;
79751;SDS011;69234;47.446;21.636;2023-08-06T01:17:25;9.70;;;9.70;;
79751;SDS011;69234;47.446;21.636;2023-08-06T01:17:58;9.93;;;9.93;;
79751;SDS011;69234;47.446;21.636;2023-08-06T01:18:29;9.73;;;9.73;;
79751;SDS011;69234;47.446;21.636;2023-08-06T01:19:00;9.10;;;9.10;;
79751;SDS011;69234;47.446;21.636;2023-08-06T01:19:31;8.87;;;8.87;;
79751;SDS011;69234;47.446;21.636;2023-08-06T01:20:02;8.97;;;8.97;;
79751;SDS011;69234;47.446;21.636;2023-08-06T01:20:34;9.03;;;9.03;;
79751;SDS011;69234;47.446;21.636;2023-08-06T01:21:05;9.00;;;9.00;;
79751;SDS011;69234;47.446;21.636;2023-08-06T01:21:35;9.17;;;9.17;;
79751;SDS011;69234;47.446;21.636;2023-08-06T01:22:06;9.57;;;9.57;;
79751;SDS011;69234;47.446;21.636;2023-08-06T01:22:37;9.17;;;9.17;;
79751;SDS011;69234;47.446;21.636;2023-08-06T01:23:08;8.67;;;8.67;;
79751;SDS011;69234;47.446;21.636;2023-08-06T01:23:39;8.60;;;8.60;;
79751;SDS011;69234;47.446;21.636;2023-08-06T01:24:12;9.37;;;9.37;;
79751;SDS011;69234;47.446;21.636;2023-08-06T01:24:45;9.03;;;9.03;;
79751;SDS011;69234;47.446;21.636;2023-08-06T01:25:20;8.63;;;8.63;;
79751;SDS011;69234;47.446;21.636;2023-08-06T01:26:02;8.93;;;8.93;;
79751;SDS011;69234;47.446;21.636;2023-08-06T01:27:43;8.93;;;8.93;;
79751;SDS011;69234;47.446;21.636;2023-08-06T01:28:27;9.20;;;9.20;;
79751;SDS011;69234;47.446;21.636;2023-08-06T01:29:31;9.77;;;9.77;;
79751;SDS011;69234;47.446;21.636;2023-08-06T01:30:12;9.37;;;9.37;;
79751;SDS011;69234;47.446;21.636;2023-08-06T01:31:01;9.33;;;9.33;;
79751;SDS011;69234;47.446;21.636;2023-08-06T01:31:35;8.70;;;8.70;;
79751;SDS011;69234;47.446;21.636;2023-08-06T01:32:10;9.90;;;9.90;;
79751;SDS011;69234;47.446;21.636;2023-08-06T01:32:44;9.73;;;9.73;;
79751;SDS011;69234;47.446;21.636;2023-08-06T01:33:20;9.33;;;9.33;;
79751;SDS011;69234;47.446;21.636;2023-08-06T01:33:52;9.23;;;9.23;;
79751;SDS011;69234;47.446;21.636;2023-08-06T01:34:28;9.40;;;9.40;;
79751;SDS011;69234;47.446;21.636;2023-08-06T01:35:04;9.43;;;9.43;;
79751;SDS011;69234;47.446;21.636;2023-08-06T01:35:37;9.07;;;9.07;;
79751;SDS011;69234;47.446;21.636;2023-08-06T01:36:08;9.37;;;9.37;;
79751;SDS011;69234;47.446;21.636;2023-08-06T01:36:40;9.03;;;9.03;;
79751;SDS011;69234;47.446;21.636;2023-08-06T01:37:12;9.43;;;9.43;;
79751;SDS011;69234;47.446;21.636;2023-08-06T01:37:43;9.47;;;9.47;;
79751;SDS011;69234;47.446;21.636;2023-08-06T01:38:14;9.30;;;9.30;;
79751;SDS011;69234;47.446;21.636;2023-08-06T01:38:45;9.03;;;9.03;;
79751;SDS011;69234;47.446;21.636;2023-08-06T01:39:17;8.73;;;8.73;;
79751;SDS011;69234;47.446;21.636;2023-08-06T01:39:51;8.73;;;8.73;;
79751;SDS011;69234;47.446;21.636;2023-08-06T01:40:22;8.47;;;8.47;;
79751;SDS011;69234;47.446;21.636;2023-08-06T01:40:53;8.20;;;8.20;;
79751;SDS011;69234;47.446;21.636;2023-08-06T01:41:24;8.27;;;8.27;;
79751;SDS011;69234;47.446;21.636;2023-08-06T01:41:55;7.83;;;7.83;;
79751;SDS011;69234;47.446;21.636;2023-08-06T01:42:25;8.43;;;8.43;;
79751;SDS011;69234;47.446;21.636;2023-08-06T01:42:56;7.57;;;7.57;;
79751;SDS011;69234;47.446;21.636;2023-08-06T01:43:27;8.03;;;8.03;;
79751;SDS011;69234;47.446;21.636;2023-08-06T01:43:58;7.93;;;7.93;;
79751;SDS011;69234;47.446;21.636;2023-08-06T01:44:29;7.33;;;7.33;;
79751;SDS011;69234;47.446;21.636;2023-08-06T01:45:00;7.60;;;7.60;;
79751;SDS011;69234;47.446;21.636;2023-08-06T01:45:32;7.57;;;7.57;;
79751;SDS011;69234;47.446;21.636;2023-08-06T01:46:02;7.67;;;7.67;;
79751;SDS011;69234;47.446;21.636;2023-08-06T01:46:33;7.70;;;7.70;;
79751;SDS011;69234;47.446;21.636;2023-08-06T01:47:04;7.10;;;7.10;;
79751;SDS011;69234;47.446;21.636;2023-08-06T01:47:37;7.30;;;7.30;;
79751;SDS011;69234;47.446;21.636;2023-08-06T01:48:07;6.90;;;6.90;;
79751;SDS011;69234;47.446;21.636;2023-08-06T01:48:38;7.03;;;7.03;;
79751;SDS011;69234;47.446;21.636;2023-08-06T01:49:09;7.13;;;7.13;;
79751;SDS011;69234;47.446;21.636;2023-08-06T01:49:40;6.53;;;6.53;;
79751;SDS011;69234;47.446;21.636;2023-08-06T01:50:11;6.33;;;6.33;;
79751;SDS011;69234;47.446;21.636;2023-08-06T01:50:42;5.87;;;5.87;;
79751;SDS011;69234;47.446;21.636;2023-08-06T01:51:13;5.70;;;5.70;;
79751;SDS011;69234;47.446;21.636;2023-08-06T01:51:44;5.53;;;5.53;;
79751;SDS011;69234;47.446;21.636;2023-08-06T01:52:15;5.47;;;5.47;;
79751;SDS011;69234;47.446;21.636;2023-08-06T01:52:46;5.80;;;5.80;;
79751;SDS011;69234;47.446;21.636;2023-08-06T01:53:17;6.03;;;6.03;;
79751;SDS011;69234;47.446;21.636;2023-08-06T01:53:48;5.87;;;5.87;;
79751;SDS011;69234;47.446;21.636;2023-08-06T01:54:19;6.23;;;6.23;;
79751;SDS011;69234;47.446;21.636;2023-08-06T01:54:49;5.50;;;5.50;;
79751;SDS011;69234;47.446;21.636;2023-08-06T01:55:20;5.33;;;5.33;;
79751;SDS011;69234;47.446;21.636;2023-08-06T01:55:51;5.50;;;5.50;;
79751;SDS011;69234;47.446;21.636;2023-08-06T01:56:23;5.77;;;5.77;;
79751;SDS011;69234;47.446;21.636;2023-08-06T01:56:54;5.93;;;5.93;;
79751;SDS011;69234;47.446;21.636;2023-08-06T01:57:25;5.83;;;5.83;;
79751;SDS011;69234;47.446;21.636;2023-08-06T01:57:56;5.47;;;5.47;;
79751;SDS011;69234;47.446;21.636;2023-08-06T01:58:27;5.73;;;5.73;;
79751;SDS011;69234;47.446;21.636;2023-08-06T01:58:58;6.27;;;6.27;;
79751;SDS011;69234;47.446;21.636;2023-08-06T01:59:29;5.77;;;5.77;;
79751;SDS011;69234;47.446;21.636;2023-08-06T02:00:01;5.33;;;5.33;;
79751;SDS011;69234;47.446;21.636;2023-08-06T02:00:43;5.60;;;5.60;;
79751;SDS011;69234;47.446;21.636;2023-08-06T02:01:14;5.27;;;5.27;;
79751;SDS011;69234;47.446;21.636;2023-08-06T02:01:45;5.37;;;5.37;;
79751;SDS011;69234;47.446;21.636;2023-08-06T02:02:16;5.20;;;5.20;;
79751;SDS011;69234;47.446;21.636;2023-08-06T02:02:47;5.13;;;5.13;;
79751;SDS011;69234;47.446;21.636;2023-08-06T02:03:18;5.47;;;5.47;;
79751;SDS011;69234;47.446;21.636;2023-08-06T02:03:48;5.13;;;5.13;;
79751;SDS011;69234;47.446;21.636;2023-08-06T02:04:19;5.50;;;5.50;;
79751;SDS011;69234;47.446;21.636;2023-08-06T02:04:50;5.83;;;5.83;;
79751;SDS011;69234;47.446;21.636;2023-08-06T02:05:21;5.43;;;5.43;;
79751;SDS011;69234;47.446;21.636;2023-08-06T02:05:52;5.40;;;5.40;;
79751;SDS011;69234;47.446;21.636;2023-08-06T02:06:23;5.17;;;5.17;;
79751;SDS011;69234;47.446;21.636;2023-08-06T02:06:54;5.23;;;5.23;;
79751;SDS011;69234;47.446;21.636;2023-08-06T02:07:25;5.03;;;5.03;;
79751;SDS011;69234;47.446;21.636;2023-08-06T02:07:56;5.00;;;5.00;;
79751;SDS011;69234;47.446;21.636;2023-08-06T02:08:27;5.53;;;5.53;;
79751;SDS011;69234;47.446;21.636;2023-08-06T02:08:58;5.67;;;5.67;;
79751;SDS011;69234;47.446;21.636;2023-08-06T02:09:29;5.33;;;5.33;;
79751;SDS011;69234;47.446;21.636;2023-08-06T02:10:00;4.77;;;4.77;;
79751;SDS011;69234;47.446;21.636;2023-08-06T02:10:31;4.40;;;4.40;;
79751;SDS011;69234;47.446;21.636;2023-08-06T02:11:03;5.23;;;5.23;;
79751;SDS011;69234;47.446;21.636;2023-08-06T02:11:35;5.37;;;5.37;;
79751;SDS011;69234;47.446;21.636;2023-08-06T02:12:06;4.77;;;4.77;;
79751;SDS011;69234;47.446;21.636;2023-08-06T02:12:37;4.23;;;4.23;;
79751;SDS011;69234;47.446;21.636;2023-08-06T02:13:08;5.00;;;5.00;;
79751;SDS011;69234;47.446;21.636;2023-08-06T02:13:39;4.97;;;4.97;;
79751;SDS011;69234;47.446;21.636;2023-08-06T02:14:10;4.93;;;4.93;;
79751;SDS011;69234;47.446;21.636;2023-08-06T02:14:43;4.90;;;4.90;;
79751;SDS011;69234;47.446;21.636;2023-08-06T02:15:14;5.00;;;5.00;;
79751;SDS011;69234;47.446;21.636;2023-08-06T02:15:45;5.00;;;5.00;;
79751;SDS011;69234;47.446;21.636;2023-08-06T02:16:19;4.83;;;4.83;;
79751;SDS011;69234;47.446;21.636;2023-08-06T02:16:50;4.63;;;4.63;;
79751;SDS011;69234;47.446;21.636;2023-08-06T02:17:21;5.27;;;5.27;;
79751;SDS011;69234;47.446;21.636;2023-08-06T02:17:52;4.90;;;4.90;;
79751;SDS011;69234;47.446;21.636;2023-08-06T02:18:23;4.60;;;4.60;;
79751;SDS011;69234;47.446;21.636;2023-08-06T02:18:54;4.47;;;4.47;;
79751;SDS011;69234;47.446;21.636;2023-08-06T02:19:25;4.87;;;4.87;;
79751;SDS011;69234;47.446;21.636;2023-08-06T02:19:56;4.83;;;4.83;;
79751;SDS011;69234;47.446;21.636;2023-08-06T02:20:27;4.57;;;4.57;;
79751;SDS011;69234;47.446;21.636;2023-08-06T02:20:59;4.43;;;4.43;;
79751;SDS011;69234;47.446;21.636;2023-08-06T02:21:30;4.00;;;4.00;;
79751;SDS011;69234;47.446;21.636;2023-08-06T02:22:01;4.30;;;4.30;;
79751;SDS011;69234;47.446;21.636;2023-08-06T02:22:32;4.03;;;4.03;;
79751;SDS011;69234;47.446;21.636;2023-08-06T02:23:03;4.13;;;4.13;;
79751;SDS011;69234;47.446;21.636;2023-08-06T02:23:34;4.23;;;4.23;;
79751;SDS011;69234;47.446;21.636;2023-08-06T02:24:05;4.30;;;4.30;;
79751;SDS011;69234;47.446;21.636;2023-08-06T02:24:36;4.30;;;4.30;;
79751;SDS011;69234;47.446;21.636;2023-08-06T02:25:07;4.43;;;4.43;;
79751;SDS011;69234;47.446;21.636;2023-08-06T02:25:39;4.47;;;4.47;;
79751;SDS011;69234;47.446;21.636;2023-08-06T02:26:10;3.87;;;3.87;;
79751;SDS011;69234;47.446;21.636;2023-08-06T02:26:41;3.80;;;3.80;;
79751;SDS011;69234;47.446;21.636;2023-08-06T02:27:12;3.73;;;3.73;;
79751;SDS011;69234;47.446;21.636;2023-08-06T02:27:43;3.97;;;3.97;;
79751;SDS011;69234;47.446;21.636;2023-08-06T02:28:14;4.13;;;4.13;;
79751;SDS011;69234;47.446;21.636;2023-08-06T02:28:45;4.33;;;4.33;;
79751;SDS011;69234;47.446;21.636;2023-08-06T02:29:18;3.83;;;3.83;;
79751;SDS011;69234;47.446;21.636;2023-08-06T02:29:49;3.63;;;3.63;;
79751;SDS011;69234;47.446;21.636;2023-08-06T02:30:20;3.63;;;3.63;;
79751;SDS011;69234;47.446;21.636;2023-08-06T02:30:51;3.67;;;3.67;;
79751;SDS011;69234;47.446;21.636;2023-08-06T02:31:22;4.03;;;4.03;;
79751;SDS011;69234;47.446;21.636;2023-08-06T02:31:53;4.30;;;4.30;;
79751;SDS011;69234;47.446;21.636;2023-08-06T02:32:24;4.30;;;4.30;;
79751;SDS011;69234;47.446;21.636;2023-08-06T02:32:55;4.23;;;4.23;;
79751;SDS011;69234;47.446;21.636;2023-08-06T02:33:26;4.20;;;4.20;;
79751;SDS011;69234;47.446;21.636;2023-08-06T02:33:59;3.97;;;3.97;;
79751;SDS011;69234;47.446;21.636;2023-08-06T02:34:29;3.73;;;3.73;;
79751;SDS011;69234;47.446;21.636;2023-08-06T02:35:01;3.80;;;3.80;;
79751;SDS011;69234;47.446;21.636;2023-08-06T02:35:32;4.23;;;4.23;;
79751;SDS011;69234;47.446;21.636;2023-08-06T02:36:03;3.80;;;3.80;;
79751;SDS011;69234;47.446;21.636;2023-08-06T02:36:35;3.60;;;3.60;;
79751;SDS011;69234;47.446;21.636;2023-08-06T02:37:06;3.63;;;3.63;;
79751;SDS011;69234;47.446;21.636;2023-08-06T02:37:37;4.10;;;4.10;;
79751;SDS011;69234;47.446;21.636;2023-08-06T02:38:08;3.97;;;3.97;;
79751;SDS011;69234;47.446;21.636;2023-08-06T02:38:39;3.93;;;3.93;;
79751;SDS011;69234;47.446;21.636;2023-08-06T02:39:10;4.00;;;4.00;;
79751;SDS011;69234;47.446;21.636;2023-08-06T02:39:41;4.33;;;4.33;;
79751;SDS011;69234;47.446;21.636;2023-08-06T02:40:12;3.87;;;3.87;;
79751;SDS011;69234;47.446;21.636;2023-08-06T02:40:43;3.97;;;3.97;;
79751;SDS011;69234;47.446;21.636;2023-08-06T02:41:17;4.03;;;4.03;;
79751;SDS011;69234;47.446;21.636;2023-08-06T02:41:48;4.17;;;4.17;;
79751;SDS011;69234;47.446;21.636;2023-08-06T02:42:20;4.37;;;4.37;;
79751;SDS011;69234;47.446;21.636;2023-08-06T02:42:51;4.20;;;4.20;;
79751;SDS011;69234;47.446;21.636;2023-08-06T02:43:21;4.33;;;4.33;;
79751;SDS011;69234;47.446;21.636;2023-08-06T02:43:52;4.00;;;4.00;;
79751;SDS011;69234;47.446;21.636;2023-08-06T02:44:26;4.07;;;4.07;;
79751;SDS011;69234;47.446;21.636;2023-08-06T02:44:58;3.80;;;3.80;;
79751;SDS011;69234;47.446;21.636;2023-08-06T02:45:29;4.30;;;4.30;;
79751;SDS011;69234;47.446;21.636;2023-08-06T02:46:00;3.90;;;3.90;;
79751;SDS011;69234;47.446;21.636;2023-08-06T02:46:32;3.90;;;3.90;;
79751;SDS011;69234;47.446;21.636;2023-08-06T02:47:03;3.93;;;3.93;;
79751;SDS011;69234;47.446;21.636;2023-08-06T02:47:34;3.73;;;3.73;;
79751;SDS011;69234;47.446;21.636;2023-08-06T02:48:05;3.93;;;3.93;;
79751;SDS011;69234;47.446;21.636;2023-08-06T02:48:36;4.00;;;4.00;;
79751;SDS011;69234;47.446;21.636;2023-08-06T02:49:07;3.87;;;3.87;;
79751;SDS011;69234;47.446;21.636;2023-08-06T02:49:38;3.83;;;3.83;;
79751;SDS011;69234;47.446;21.636;2023-08-06T02:50:09;4.03;;;4.03;;
79751;SDS011;69234;47.446;21.636;2023-08-06T02:50:40;4.30;;;4.30;;
79751;SDS011;69234;47.446;21.636;2023-08-06T02:51:12;4.40;;;4.40;;
79751;SDS011;69234;47.446;21.636;2023-08-06T02:51:44;4.07;;;4.07;;
79751;SDS011;69234;47.446;21.636;2023-08-06T02:52:16;3.97;;;3.97;;
79751;SDS011;69234;47.446;21.636;2023-08-06T02:52:47;4.10;;;4.10;;
79751;SDS011;69234;47.446;21.636;2023-08-06T02:53:19;4.20;;;4.20;;
79751;SDS011;69234;47.446;21.636;2023-08-06T02:53:52;3.73;;;3.73;;
79751;SDS011;69234;47.446;21.636;2023-08-06T02:54:25;3.43;;;3.43;;
79751;SDS011;69234;47.446;21.636;2023-08-06T02:54:56;3.60;;;3.60;;
79751;SDS011;69234;47.446;21.636;2023-08-06T02:55:30;3.90;;;3.90;;
79751;SDS011;69234;47.446;21.636;2023-08-06T02:56:01;3.87;;;3.87;;
79751;SDS011;69234;47.446;21.636;2023-08-06T02:56:42;4.27;;;4.27;;
79751;SDS011;69234;47.446;21.636;2023-08-06T02:57:21;4.00;;;4.00;;
79751;SDS011;69234;47.446;21.636;2023-08-06T02:57:54;4.47;;;4.47;;
79751;SDS011;69234;47.446;21.636;2023-08-06T02:58:25;3.80;;;3.80;;
79751;SDS011;69234;47.446;21.636;2023-08-06T02:59:13;3.67;;;3.67;;
79751;SDS011;69234;47.446;21.636;2023-08-06T02:59:55;3.87;;;3.87;;
79751;SDS011;69234;47.446;21.636;2023-08-06T03:00:27;4.03;;;4.03;;
79751;SDS011;69234;47.446;21.636;2023-08-06T03:00:58;4.00;;;4.00;;
79751;SDS011;69234;47.446;21.636;2023-08-06T03:01:47;3.87;;;3.87;;
79751;SDS011;69234;47.446;21.636;2023-08-06T03:02:24;3.97;;;3.97;;
79751;SDS011;69234;47.446;21.636;2023-08-06T03:03:28;3.57;;;3.57;;
79751;SDS011;69234;47.446;21.636;2023-08-06T03:04:03;4.13;;;4.13;;
79751;SDS011;69234;47.446;21.636;2023-08-06T03:04:39;3.87;;;3.87;;
79751;SDS011;69234;47.446;21.636;2023-08-06T03:05:10;3.73;;;3.73;;
79751;SDS011;69234;47.446;21.636;2023-08-06T03:05:52;3.47;;;3.47;;
79751;SDS011;69234;47.446;21.636;2023-08-06T03:06:33;3.60;;;3.60;;
79751;SDS011;69234;47.446;21.636;2023-08-06T03:07:05;3.37;;;3.37;;
79751;SDS011;69234;47.446;21.636;2023-08-06T03:07:44;3.67;;;3.67;;
79751;SDS011;69234;47.446;21.636;2023-08-06T03:08:24;3.77;;;3.77;;
79751;SDS011;69234;47.446;21.636;2023-08-06T03:08:56;3.97;;;3.97;;
79751;SDS011;69234;47.446;21.636;2023-08-06T03:09:26;4.03;;;4.03;;
79751;SDS011;69234;47.446;21.636;2023-08-06T03:09:57;3.90;;;3.90;;
79751;SDS011;69234;47.446;21.636;2023-08-06T03:10:29;3.80;;;3.80;;
79751;SDS011;69234;47.446;21.636;2023-08-06T03:11:03;3.37;;;3.37;;
79751;SDS011;69234;47.446;21.636;2023-08-06T03:11:34;3.70;;;3.70;;
79751;SDS011;69234;47.446;21.636;2023-08-06T03:12:10;3.93;;;3.93;;
79751;SDS011;69234;47.446;21.636;2023-08-06T03:12:42;3.77;;;3.77;;
79751;SDS011;69234;47.446;21.636;2023-08-06T03:13:13;3.57;;;3.57;;
79751;SDS011;69234;47.446;21.636;2023-08-06T03:13:44;3.57;;;3.57;;
79751;SDS011;69234;47.446;21.636;2023-08-06T03:14:15;3.50;;;3.50;;
79751;SDS011;69234;47.446;21.636;2023-08-06T03:14:47;3.57;;;3.57;;
79751;SDS011;69234;47.446;21.636;2023-08-06T03:15:19;3.87;;;3.87;;
79751;SDS011;69234;47.446;21.636;2023-08-06T03:15:59;3.50;;;3.50;;
79751;SDS011;69234;47.446;21.636;2023-08-06T03:16:31;3.80;;;3.80;;
79751;SDS011;69234;47.446;21.636;2023-08-06T03:17:04;3.80;;;3.80;;